createdAt,value
2018-02-23T00:00:43.940Z,0.10
2018-02-23T00:03:11.644Z,0.12
2018-02-23T00:05:39.674Z,0.08
2018-02-23T00:08:07.243Z,0.09
2018-02-23T00:10:34.825Z,0.07
2018-02-23T00:13:02.771Z,0.07
2018-02-23T00:15:30.628Z,0.04
2018-02-23T00:17:58.598Z,0.03
2018-02-23T00:20:26.334Z,0.00
2018-02-23T00:22:54.238Z,-0.02
2018-02-23T00:25:21.828Z,-0.03
2018-02-23T00:27:49.471Z,-0.03
2018-02-23T00:30:17.093Z,-0.03
2018-02-23T00:32:44.785Z,-0.02
2018-02-23T00:35:12.406Z,-0.02
2018-02-23T00:37:39.987Z,-0.06
2018-02-23T00:40:07.635Z,-0.05
2018-02-23T00:42:35.251Z,-0.08
2018-02-23T00:45:02.875Z,-0.11
2018-02-23T00:47:30.586Z,-0.15
2018-02-23T00:49:58.247Z,-0.17
2018-02-23T00:52:26.094Z,-0.18
2018-02-23T00:54:53.724Z,-0.20
2018-02-23T00:57:21.386Z,-0.17
2018-02-23T00:59:49.004Z,-0.19
2018-02-23T01:02:16.617Z,-0.23
2018-02-23T01:04:44.282Z,-0.21
2018-02-23T01:07:11.876Z,-0.23
2018-02-23T01:09:39.467Z,-0.25
2018-02-23T01:12:07.108Z,-0.26
2018-02-23T01:14:34.710Z,-0.26
2018-02-23T01:17:02.288Z,-0.28
2018-02-23T01:19:29.938Z,-0.29
2018-02-23T01:21:57.581Z,-0.32
2018-02-23T01:24:25.593Z,-0.35
2018-02-23T01:26:55.167Z,-0.36
2018-02-23T01:29:22.804Z,-0.36
2018-02-23T01:31:50.402Z,-0.37
2018-02-23T01:34:18.389Z,-0.38
2018-02-23T01:36:46.049Z,-0.40
2018-02-23T01:39:13.685Z,-0.41
2018-02-23T01:41:41.330Z,-0.43
2018-02-23T01:44:08.934Z,-0.44
2018-02-23T01:46:36.556Z,-0.44
2018-02-23T01:49:04.219Z,-0.47
2018-02-23T01:51:31.835Z,-0.46
2018-02-23T01:53:59.454Z,-0.49
2018-02-23T01:56:27.137Z,-0.46
2018-02-23T01:58:54.822Z,-0.47
2018-02-23T02:01:22.472Z,-0.48
2018-02-23T02:03:50.102Z,-0.57
2018-02-23T02:06:17.770Z,-0.53
2018-02-23T02:08:45.390Z,-0.51
2018-02-23T02:11:13.056Z,-0.54
2018-02-23T02:13:40.984Z,-0.59
2018-02-23T02:16:08.953Z,-0.60
2018-02-23T02:18:36.930Z,-0.61
2018-02-23T02:21:04.598Z,-0.59
2018-02-23T02:23:32.253Z,-0.63
2018-02-23T02:25:59.868Z,-0.60
2018-02-23T02:28:27.530Z,-0.63
2018-02-23T02:30:55.136Z,-0.64
2018-02-23T02:33:22.735Z,-0.66
2018-02-23T02:35:50.391Z,-0.66
2018-02-23T02:38:17.990Z,-0.68
2018-02-23T02:40:45.590Z,-0.72
2018-02-23T02:43:13.242Z,-0.73
2018-02-23T02:45:40.837Z,-0.71
2018-02-23T02:48:08.421Z,-0.71
2018-02-23T02:50:36.050Z,-0.72
2018-02-23T02:53:03.637Z,-0.72
2018-02-23T02:55:31.223Z,-0.74
2018-02-23T02:57:58.845Z,-0.75
2018-02-23T03:00:26.500Z,-0.74
2018-02-23T03:02:54.397Z,-0.77
2018-02-23T03:05:22.015Z,-0.77
2018-02-23T03:07:49.663Z,-0.77
2018-02-23T03:10:17.269Z,-0.78
2018-02-23T03:12:45.184Z,-0.79
2018-02-23T03:15:12.780Z,-0.80
2018-02-23T03:17:40.472Z,-0.84
2018-02-23T03:20:08.074Z,-0.84
2018-02-23T03:22:35.686Z,-0.85
2018-02-23T03:25:03.704Z,-0.88
2018-02-23T03:27:31.289Z,-0.88
2018-02-23T03:29:58.917Z,-0.87
2018-02-23T03:32:26.566Z,-0.85
2018-02-23T03:34:54.240Z,-0.82
2018-02-23T03:37:21.844Z,-0.84
2018-02-23T03:39:49.486Z,-0.83
2018-02-23T03:42:17.088Z,-0.81
2018-02-23T03:44:44.699Z,-0.75
2018-02-23T03:47:12.358Z,-0.76
2018-02-23T03:49:39.946Z,-0.74
2018-02-23T03:52:07.560Z,-0.78
2018-02-23T03:54:35.322Z,-0.73
2018-02-23T03:57:02.928Z,-0.72
2018-02-23T03:59:30.608Z,-0.69
2018-02-23T04:01:58.248Z,-0.66
2018-02-23T04:04:25.854Z,-0.63
2018-02-23T04:06:53.704Z,-0.64
2018-02-23T04:09:21.305Z,-0.62
2018-02-23T04:11:48.933Z,-0.65
2018-02-23T04:14:16.811Z,-0.65
2018-02-23T04:16:44.426Z,-0.63
2018-02-23T04:19:12.380Z,-0.61
2018-02-23T04:21:40.015Z,-0.59
2018-02-23T04:24:07.615Z,-0.57
2018-02-23T04:26:35.421Z,-0.58
2018-02-23T04:29:03.051Z,-0.58
2018-02-23T04:31:30.915Z,-0.56
2018-02-23T04:33:58.508Z,-0.54
2018-02-23T04:36:26.185Z,-0.53
2018-02-23T04:38:53.781Z,-0.50
2018-02-23T04:41:21.369Z,-0.49
2018-02-23T04:43:49.026Z,-0.42
2018-02-23T04:46:16.657Z,-0.40
2018-02-23T04:48:44.259Z,-0.38
2018-02-23T04:51:11.906Z,-0.35
2018-02-23T04:53:39.551Z,-0.33
2018-02-23T04:56:07.366Z,-0.35
2018-02-23T04:58:34.987Z,-0.33
2018-02-23T05:01:02.662Z,-0.32
2018-02-23T05:03:30.496Z,-0.30
2018-02-23T05:05:58.089Z,-0.28
2018-02-23T05:08:25.759Z,-0.25
2018-02-23T05:10:53.363Z,-0.22
2018-02-23T05:13:21.186Z,-0.27
2018-02-23T05:15:48.914Z,-0.26
2018-02-23T05:18:16.560Z,-0.22
2018-02-23T05:20:44.147Z,-0.21
2018-02-23T05:23:11.736Z,-0.19
2018-02-23T05:25:39.378Z,-0.17
2018-02-23T05:28:07.057Z,-0.14
2018-02-23T05:30:34.670Z,-0.15
2018-02-23T05:33:02.274Z,-0.09
2018-02-23T05:35:30.830Z,-0.10
2018-02-23T05:37:58.424Z,-0.08
2018-02-23T05:40:26.043Z,-0.10
2018-02-23T05:42:53.731Z,-0.09
2018-02-23T05:45:21.336Z,-0.08
2018-02-23T05:47:48.946Z,-0.08
2018-02-23T05:50:16.628Z,-0.05
2018-02-23T05:52:44.262Z,-0.02
2018-02-23T05:55:11.858Z,-0.02
2018-02-23T05:57:39.490Z,0.01
2018-02-23T06:00:07.203Z,0.02
2018-02-23T06:02:34.895Z,0.06
2018-02-23T06:05:02.502Z,0.09
2018-02-23T06:07:30.153Z,0.08
2018-02-23T06:09:57.821Z,0.07
2018-02-23T06:12:25.699Z,0.06
2018-02-23T06:14:53.379Z,0.02
2018-02-23T06:17:26.734Z,0.09
2018-02-23T06:20:00.006Z,0.08
2018-02-23T06:22:27.632Z,0.07
2018-02-23T06:24:55.302Z,0.09
2018-02-23T06:27:23.000Z,0.09
2018-02-23T06:29:50.632Z,0.08
2018-02-23T06:32:18.303Z,0.11
2018-02-23T06:34:45.936Z,0.10
2018-02-23T06:37:13.534Z,0.11
2018-02-23T06:39:41.189Z,0.09
2018-02-23T06:42:08.791Z,0.12
2018-02-23T06:44:36.390Z,0.14
2018-02-23T06:47:09.655Z,0.15
2018-02-23T06:49:37.292Z,0.15
2018-02-23T06:52:05.000Z,0.16
2018-02-23T06:54:32.632Z,0.15
2018-02-23T06:57:00.272Z,0.18
2018-02-23T06:59:27.967Z,0.20
2018-02-23T07:01:55.580Z,0.21
2018-02-23T07:04:23.203Z,0.23
2018-02-23T07:06:50.855Z,0.24
2018-02-23T07:09:18.448Z,0.26
2018-02-23T07:11:46.057Z,0.25
2018-02-23T07:14:13.701Z,0.28
2018-02-23T07:16:41.336Z,0.26
2018-02-23T07:19:09.187Z,0.25
2018-02-23T07:21:36.839Z,0.24
2018-02-23T07:24:04.443Z,0.21
2018-02-23T07:26:32.026Z,0.24
2018-02-23T07:28:59.860Z,0.24
2018-02-23T07:31:27.499Z,0.27
2018-02-23T07:33:55.149Z,0.24
2018-02-23T07:36:22.735Z,0.25
2018-02-23T07:38:50.379Z,0.32
2018-02-23T07:41:18.027Z,0.39
2018-02-23T07:43:45.660Z,0.41
2018-02-23T07:46:13.644Z,0.43
2018-02-23T07:48:41.277Z,0.45
2018-02-23T07:51:08.927Z,0.47
2018-02-23T07:53:36.650Z,0.51
2018-02-23T07:56:04.687Z,0.53
2018-02-23T07:58:32.381Z,0.57
2018-02-23T08:01:00.092Z,0.60
2018-02-23T08:03:27.951Z,0.57
2018-02-23T08:05:55.601Z,0.59
2018-02-23T08:08:23.254Z,0.65
2018-02-23T08:10:50.857Z,0.66
2018-02-23T08:13:18.494Z,0.69
2018-02-23T08:15:46.154Z,0.70
2018-02-23T08:18:13.796Z,0.75
2018-02-23T08:20:41.420Z,0.81
2018-02-23T08:23:09.129Z,0.83
2018-02-23T08:25:36.736Z,0.87
2018-02-23T08:28:04.415Z,0.96
2018-02-23T08:30:32.037Z,1.00
2018-02-23T08:32:59.663Z,1.00
2018-02-23T08:35:27.315Z,1.06
2018-02-23T08:37:54.939Z,1.10
2018-02-23T08:40:22.605Z,1.15
2018-02-23T08:42:50.213Z,1.22
2018-02-23T08:45:17.811Z,1.25
2018-02-23T08:47:45.449Z,1.29
2018-02-23T08:50:13.052Z,1.32
2018-02-23T08:52:40.723Z,1.33
2018-02-23T08:55:08.342Z,1.34
2018-02-23T08:57:35.971Z,1.37
2018-02-23T09:00:03.647Z,1.35
2018-02-23T09:02:31.279Z,1.42
2018-02-23T09:04:58.999Z,1.46
2018-02-23T09:07:26.675Z,1.54
2018-02-23T09:09:54.270Z,1.56
2018-02-23T09:12:21.939Z,1.52
2018-02-23T09:14:49.588Z,1.50
2018-02-23T09:17:17.225Z,1.55
2018-02-23T09:19:44.880Z,1.57
2018-02-23T09:22:12.532Z,1.61
2018-02-23T09:24:40.191Z,1.64
2018-02-23T09:27:07.827Z,1.68
2018-02-23T09:29:35.554Z,1.71
2018-02-23T09:32:03.279Z,1.75
2018-02-23T09:34:37.805Z,1.78
2018-02-23T09:37:05.436Z,1.80
2018-02-23T09:39:33.087Z,1.83
2018-02-23T09:42:00.773Z,1.88
2018-02-23T09:44:28.467Z,1.92
2018-02-23T09:46:56.116Z,1.97
2018-02-23T09:49:23.810Z,2.00
2018-02-23T09:51:51.458Z,1.91
2018-02-23T09:54:19.094Z,1.92
2018-02-23T09:56:46.775Z,1.89
2018-02-23T09:59:14.398Z,1.96
2018-02-23T10:01:42.060Z,1.97
2018-02-23T10:04:10.092Z,1.97
2018-02-23T10:06:37.708Z,1.89
2018-02-23T10:09:05.426Z,1.90
2018-02-23T10:11:33.066Z,1.96
2018-02-23T10:14:00.898Z,1.95
2018-02-23T10:16:28.826Z,1.96
2018-02-23T10:18:56.459Z,1.96
2018-02-23T10:21:24.445Z,1.97
2018-02-23T10:23:52.080Z,2.01
2018-02-23T10:26:19.680Z,2.09
2018-02-23T10:28:47.366Z,2.09
2018-02-23T10:31:15.044Z,2.10
2018-02-23T10:33:42.679Z,2.12
2018-02-23T10:36:10.357Z,2.18
2018-02-23T10:38:37.998Z,2.21
2018-02-23T10:41:05.707Z,2.22
2018-02-23T10:43:33.373Z,2.26
2018-02-23T10:46:01.373Z,2.23
2018-02-23T10:48:29.092Z,2.15
2018-02-23T10:50:56.759Z,2.25
2018-02-23T10:53:24.689Z,2.29
2018-02-23T10:55:52.365Z,2.33
2018-02-23T10:58:20.011Z,2.37
2018-02-23T11:00:47.626Z,2.38
2018-02-23T11:03:15.295Z,2.48
2018-02-23T11:05:42.918Z,2.53
2018-02-23T11:08:10.571Z,2.57
2018-02-23T11:10:38.231Z,2.48
2018-02-23T11:13:05.866Z,2.48
2018-02-23T11:15:37.047Z,2.53
2018-02-23T11:18:04.728Z,2.49
2018-02-23T11:20:32.359Z,2.56
2018-02-23T11:22:59.979Z,2.63
2018-02-23T11:25:27.651Z,2.75
2018-02-23T11:27:55.268Z,2.94
2018-02-23T11:30:22.953Z,3.11
2018-02-23T11:32:50.648Z,3.36
2018-02-23T11:35:18.328Z,3.53
2018-02-23T11:37:45.996Z,3.72
2018-02-23T11:40:13.588Z,3.91
2018-02-23T11:42:41.185Z,4.04
2018-02-23T11:45:08.818Z,4.18
2018-02-23T11:47:36.445Z,4.22
2018-02-23T11:50:04.109Z,4.38
2018-02-23T11:52:32.044Z,4.42
2018-02-23T12:00:45.824Z,4.45
2018-02-23T12:03:13.427Z,4.29
2018-02-23T12:05:41.042Z,4.13
2018-02-23T12:08:08.773Z,3.97
2018-02-23T12:10:36.380Z,4.12
2018-02-23T12:13:03.998Z,4.15
2018-02-23T12:15:31.639Z,4.15
2018-02-23T12:17:59.370Z,4.20
2018-02-23T12:20:26.974Z,4.34
2018-02-23T12:22:54.607Z,4.38
2018-02-23T12:25:22.239Z,4.34
2018-02-23T12:27:49.836Z,4.35
2018-02-23T12:30:17.494Z,4.37
2018-02-23T12:32:45.153Z,4.31
2018-02-23T12:35:12.866Z,4.36
2018-02-23T12:37:40.475Z,4.42
2018-02-23T12:40:08.089Z,4.38
2018-02-23T12:42:35.816Z,4.22
2018-02-23T12:45:03.476Z,4.33
2018-02-23T12:47:31.333Z,4.35
2018-02-23T12:49:58.963Z,4.22
2018-02-23T12:52:26.859Z,4.30
2018-02-23T12:54:54.440Z,4.20
2018-02-23T12:57:22.178Z,4.20
2018-02-23T12:59:49.937Z,4.26
2018-02-23T13:02:17.681Z,4.34
2018-02-23T13:04:45.284Z,4.43
2018-02-23T13:07:12.973Z,4.34
2018-02-23T13:09:40.596Z,4.30
2018-02-23T13:12:08.355Z,4.38
2018-02-23T13:14:41.594Z,4.33
2018-02-23T13:17:09.197Z,4.34
2018-02-23T13:19:36.786Z,4.29
2018-02-23T13:22:04.458Z,4.25
2018-02-23T13:24:32.070Z,4.24
2018-02-23T13:27:05.519Z,4.33
2018-02-23T13:29:33.162Z,4.27
2018-02-23T13:32:00.816Z,4.17
2018-02-23T13:34:28.519Z,4.21
2018-02-23T13:36:56.131Z,4.15
2018-02-23T13:39:23.755Z,4.04
2018-02-23T13:41:51.586Z,4.06
2018-02-23T13:44:19.176Z,4.06
2018-02-23T13:46:46.840Z,4.05
2018-02-23T13:49:14.424Z,4.02
2018-02-23T13:51:42.026Z,4.09
2018-02-23T13:54:15.468Z,4.06
2018-02-23T13:56:43.463Z,4.12
2018-02-23T13:59:11.175Z,4.21
2018-02-23T14:01:38.883Z,4.25
2018-02-23T14:04:06.534Z,4.28
2018-02-23T14:06:34.128Z,4.39
2018-02-23T14:09:01.763Z,4.32
2018-02-23T14:11:29.642Z,4.30
2018-02-23T14:13:57.227Z,4.24
2018-02-23T14:16:24.865Z,4.19
2018-02-23T14:18:52.547Z,4.16
2018-02-23T14:21:20.142Z,4.21
2018-02-23T14:23:47.976Z,4.26
2018-02-23T14:26:15.761Z,4.32
2018-02-23T14:28:43.662Z,4.51
2018-02-23T14:31:11.317Z,4.69
2018-02-23T14:33:38.989Z,4.60
2018-02-23T14:36:06.650Z,4.66
2018-02-23T14:38:34.380Z,4.60
2018-02-23T14:41:02.232Z,4.45
2018-02-23T14:43:29.948Z,4.43
2018-02-23T14:45:57.641Z,4.33
2018-02-23T14:48:37.305Z,4.41
2018-02-23T14:51:10.956Z,4.31
2018-02-23T14:53:38.653Z,4.41
2018-02-23T14:56:06.307Z,4.33
2018-02-23T14:58:34.000Z,4.20
2018-02-23T15:01:01.642Z,4.29
2018-02-23T15:03:29.247Z,4.17
2018-02-23T15:05:56.947Z,4.11
2018-02-23T15:08:24.629Z,4.12
2018-02-23T15:10:52.344Z,4.10
2018-02-23T15:13:20.256Z,3.95
2018-02-23T15:15:47.904Z,3.96
2018-02-23T15:18:15.588Z,3.94
2018-02-23T15:20:43.260Z,3.68
2018-02-23T15:23:10.915Z,3.56
2018-02-23T15:25:38.596Z,3.47
2018-02-23T15:28:06.248Z,3.40
2018-02-23T15:30:45.672Z,3.33
2018-02-23T15:33:13.271Z,3.31
2018-02-23T15:35:40.918Z,3.16
2018-02-23T15:38:08.618Z,3.10
2018-02-23T15:40:36.191Z,3.04
2018-02-23T15:43:03.791Z,2.98
2018-02-23T15:45:31.599Z,2.97
2018-02-23T15:48:05.038Z,2.97
2018-02-23T15:50:38.141Z,2.90
2018-02-23T15:53:05.793Z,2.83
2018-02-23T15:55:33.418Z,2.78
2018-02-23T15:58:06.862Z,2.79
2018-02-23T16:00:34.526Z,2.73
2018-02-23T16:03:02.238Z,2.68
2018-02-23T16:05:29.988Z,2.68
2018-02-23T16:07:57.700Z,2.53
2018-02-23T16:10:25.328Z,2.58
2018-02-23T16:12:52.951Z,2.57
2018-02-23T16:15:20.538Z,2.52
2018-02-23T16:17:48.201Z,2.53
2018-02-23T16:20:15.849Z,2.49
2018-02-23T16:22:43.504Z,2.52
2018-02-23T16:25:11.204Z,2.46
2018-02-23T16:27:38.873Z,2.45
2018-02-23T16:30:06.580Z,2.41
2018-02-23T16:32:34.274Z,2.37
2018-02-23T16:35:01.869Z,2.34
2018-02-23T16:37:29.550Z,2.24
2018-02-23T16:39:57.232Z,2.21
2018-02-23T16:42:24.838Z,2.22
2018-02-23T16:44:52.570Z,2.21
2018-02-23T16:47:20.182Z,2.19
2018-02-23T16:49:47.876Z,2.11
2018-02-23T16:52:15.551Z,2.05
2018-02-23T16:54:43.593Z,2.04
2018-02-23T16:57:11.228Z,2.08
2018-02-23T16:59:39.041Z,1.99
2018-02-23T17:02:06.651Z,2.00
2018-02-23T17:04:34.368Z,1.98
2018-02-23T17:07:02.047Z,1.90
2018-02-23T17:09:29.967Z,1.86
2018-02-23T17:11:57.651Z,1.77
2018-02-23T17:14:25.630Z,1.71
2018-02-23T17:16:53.213Z,1.73
2018-02-23T17:19:20.872Z,1.60
2018-02-23T17:21:48.466Z,1.57
2018-02-23T17:24:16.085Z,1.57
2018-02-23T17:26:43.803Z,1.55
2018-02-23T17:29:11.397Z,1.56
2018-02-23T17:31:39.006Z,1.51
2018-02-23T17:34:06.664Z,1.46
2018-02-23T17:36:34.313Z,1.47
2018-02-23T17:39:01.930Z,1.38
2018-02-23T17:41:29.574Z,1.30
2018-02-23T17:43:58.715Z,1.33
2018-02-23T17:46:26.325Z,1.31
2018-02-23T17:48:54.085Z,1.28
2018-02-23T17:51:22.081Z,1.27
2018-02-23T17:53:49.734Z,1.23
2018-02-23T17:56:17.709Z,1.20
2018-02-23T17:58:45.339Z,1.18
2018-02-23T18:01:12.984Z,1.10
2018-02-23T18:03:40.781Z,1.08
2018-02-23T18:06:08.491Z,1.04
2018-02-23T18:08:36.159Z,1.05
2018-02-23T18:11:03.808Z,1.02
2018-02-23T18:13:31.479Z,1.04
2018-02-23T18:15:59.187Z,0.96
2018-02-23T18:18:26.903Z,0.94
2018-02-23T18:20:54.587Z,0.94
2018-02-23T18:23:22.265Z,0.87
2018-02-23T18:25:49.888Z,0.88
2018-02-23T18:28:17.609Z,0.86
2018-02-23T18:30:45.253Z,0.87
2018-02-23T18:33:12.883Z,0.85
2018-02-23T18:35:40.530Z,0.83
2018-02-23T18:38:08.180Z,0.77
2018-02-23T18:40:35.827Z,0.73
2018-02-23T18:43:03.481Z,0.69
2018-02-23T18:45:31.125Z,0.67
2018-02-23T18:47:58.817Z,0.65
2018-02-23T18:50:26.416Z,0.60
2018-02-23T18:52:54.060Z,0.55
2018-02-23T18:55:21.738Z,0.56
2018-02-23T18:57:49.363Z,0.55
2018-02-23T19:00:16.977Z,0.58
2018-02-23T19:02:44.604Z,0.54
2018-02-23T19:05:12.301Z,0.49
2018-02-23T19:07:39.972Z,0.45
2018-02-23T19:10:07.668Z,0.45
2018-02-23T19:12:35.391Z,0.43
2018-02-23T19:15:03.136Z,0.42
2018-02-23T19:17:30.803Z,0.39
2018-02-23T19:19:58.469Z,0.38
2018-02-23T19:22:26.176Z,0.34
2018-02-23T19:24:54.179Z,0.32
2018-02-23T19:27:21.868Z,0.35
2018-02-23T19:29:49.547Z,0.31
2018-02-23T19:32:17.162Z,0.30
2018-02-23T19:34:44.824Z,0.25
2018-02-23T19:37:12.476Z,0.24
2018-02-23T19:39:40.224Z,0.25
2018-02-23T19:42:07.861Z,0.28
2018-02-23T19:44:35.548Z,0.28
2018-02-23T19:47:03.466Z,0.24
2018-02-23T19:49:31.053Z,0.20
2018-02-23T19:51:58.667Z,0.17
2018-02-23T19:54:26.446Z,0.16
2018-02-23T19:56:54.030Z,0.19
2018-02-23T19:59:21.688Z,0.13
2018-02-23T20:01:49.689Z,0.15
2018-02-23T20:04:17.298Z,0.12
2018-02-23T20:06:45.063Z,0.11
2018-02-23T20:09:12.706Z,0.06
2018-02-23T20:11:40.325Z,0.05
2018-02-23T20:14:07.981Z,0.03
2018-02-23T20:16:35.707Z,0.03
2018-02-23T20:19:03.302Z,-0.02
2018-02-23T20:21:31.060Z,-0.04
2018-02-23T20:23:58.985Z,-0.09
2018-02-23T20:26:26.596Z,-0.08
2018-02-23T20:28:54.502Z,-0.06
2018-02-23T20:31:22.131Z,-0.08
2018-02-23T20:33:49.753Z,-0.15
2018-02-23T20:36:17.430Z,-0.17
2018-02-23T20:38:45.051Z,-0.17
2018-02-23T20:41:12.718Z,-0.20
2018-02-23T20:43:40.367Z,-0.22
2018-02-23T20:46:07.998Z,-0.23
2018-02-23T20:48:35.661Z,-0.25
2018-02-23T20:51:03.360Z,-0.28
2018-02-23T20:53:31.005Z,-0.29
2018-02-23T20:55:58.664Z,-0.34
2018-02-23T20:58:27.218Z,-0.35
2018-02-23T21:00:54.900Z,-0.37
2018-02-23T21:03:22.613Z,-0.33
2018-02-23T21:09:00.852Z,-0.36
2018-02-23T21:11:28.701Z,-0.43
2018-02-23T21:13:56.330Z,-0.45
2018-02-23T21:16:24.015Z,-0.39
2018-02-23T21:18:51.612Z,-0.39
2018-02-23T21:21:19.244Z,-0.38
2018-02-23T21:23:46.852Z,-0.43
2018-02-23T21:26:14.478Z,-0.48
2018-02-23T21:28:42.085Z,-0.52
2018-02-23T21:31:09.899Z,-0.51
2018-02-23T21:33:37.641Z,-0.50
2018-02-23T21:36:05.236Z,-0.50
2018-02-23T21:38:32.911Z,-0.55
2018-02-23T21:41:00.546Z,-0.55
2018-02-23T21:43:28.143Z,-0.58
2018-02-23T21:45:55.771Z,-0.52
2018-02-23T21:48:23.379Z,-0.57
2018-02-23T21:50:50.953Z,-0.58
2018-02-23T21:53:18.860Z,-0.61
2018-02-23T21:55:46.474Z,-0.63
2018-02-23T21:58:14.111Z,-0.60
2018-02-23T22:00:42.257Z,-0.62
2018-02-23T22:03:09.901Z,-0.61
2018-02-23T22:05:37.714Z,-0.65
2018-02-23T22:08:05.357Z,-0.65
2018-02-23T22:10:32.995Z,-0.66
2018-02-23T22:13:00.591Z,-0.69
2018-02-23T22:15:29.207Z,-0.69
2018-02-23T22:17:56.809Z,-0.72
2018-02-23T22:20:24.399Z,-0.71
2018-02-23T22:22:52.041Z,-0.76
2018-02-23T22:25:19.637Z,-0.69
2018-02-23T22:27:47.222Z,-0.71
2018-02-23T22:30:14.929Z,-0.70
2018-02-23T22:32:42.541Z,-0.73
2018-02-23T22:35:10.120Z,-0.70
2018-02-23T22:37:37.793Z,-0.74
2018-02-23T22:40:05.440Z,-0.73
2018-02-23T22:42:33.036Z,-0.74
2018-02-23T22:45:08.478Z,-0.73
2018-02-23T22:47:36.311Z,-0.78
2018-02-23T22:50:03.997Z,-0.81
2018-02-23T22:52:31.568Z,-0.79
2018-02-23T22:54:59.162Z,-0.79
2018-02-23T22:57:27.097Z,-0.79
2018-02-23T22:59:54.699Z,-0.80
2018-02-23T23:02:22.323Z,-0.83
2018-02-23T23:04:49.918Z,-0.79
2018-02-23T23:07:17.499Z,-0.76
2018-02-23T23:09:45.512Z,-0.77
2018-02-23T23:12:13.169Z,-0.78
2018-02-23T23:14:42.320Z,-0.82
2018-02-23T23:17:10.073Z,-0.83
2018-02-23T23:19:37.686Z,-0.84
2018-02-23T23:22:05.312Z,-0.84
2018-02-23T23:24:33.027Z,-0.82
2018-02-23T23:27:00.603Z,-0.84
2018-02-23T23:29:28.298Z,-0.85
2018-02-23T23:31:56.028Z,-0.89
2018-02-23T23:34:23.646Z,-0.95
2018-02-23T23:36:51.259Z,-0.97
2018-02-23T23:39:18.925Z,-0.97
2018-02-23T23:41:46.879Z,-0.97
2018-02-23T23:44:14.562Z,-1.05
2018-02-23T23:46:42.250Z,-1.00
2018-02-23T23:49:09.885Z,-1.04
2018-02-23T23:51:37.574Z,-1.03
2018-02-23T23:54:05.595Z,-1.04
2018-02-23T23:56:33.279Z,-1.08
2018-02-23T23:59:00.966Z,-1.09
